Time;durP1;ratioP1;P1;durP2;ratioP2;P2;SDS_P1;SDS_P2;PMS_P1;PMS_P2;Temp;Humidity;BMP_temperature;BMP_pressure;BME280_temperature;BME280_humidity;BME280_pressure;Samples;Min_cycle;Max_cycle;Signal;HPM_P1;HPM_P2
2022/02/28 00:00:21;;;;;;;3.80;2.10;;;4.40;68.80;;;;;;5030587;28;20032;-73
2022/02/28 00:02:49;;;;;;;4.70;2.17;;;4.40;68.10;;;;;;5031100;28;20037;-73
2022/02/28 00:05:15;;;;;;;3.50;2.10;;;4.40;68.10;;;;;;5030937;28;20029;-73
2022/02/28 00:07:40;;;;;;;4.47;2.20;;;4.30;68.10;;;;;;5030740;28;20384;-73
2022/02/28 00:10:07;;;;;;;4.50;1.85;;;4.30;68.20;;;;;;5030886;28;20393;-73
2022/02/28 00:12:34;;;;;;;2.63;1.63;;;4.30;68.20;;;;;;5030835;28;20037;-73
2022/02/28 00:14:59;;;;;;;4.05;1.52;;;4.30;68.30;;;;;;5030222;28;20501;-73
2022/02/28 00:17:25;;;;;;;4.05;1.85;;;4.20;68.30;;;;;;5030751;28;20087;-74
2022/02/28 00:19:51;;;;;;;3.67;1.30;;;4.20;68.60;;;;;;5030659;28;20022;-73
2022/02/28 00:22:16;;;;;;;3.70;1.70;;;4.10;68.70;;;;;;5030541;28;20204;-74
2022/02/28 00:24:42;;;;;;;3.22;1.75;;;4.10;69.50;;;;;;5030494;28;20037;-73
2022/02/28 00:27:08;;;;;;;2.55;1.73;;;4.10;69.00;;;;;;5029117;28;20029;-74
2022/02/28 00:29:33;;;;;;;3.88;1.55;;;4.00;69.10;;;;;;5030448;28;20033;-73
2022/02/28 00:31:59;;;;;;;2.38;1.50;;;4.00;69.20;;;;;;5030334;28;20109;-74
2022/02/28 00:34:24;;;;;;;4.03;1.98;;;4.00;69.30;;;;;;5030831;28;20119;-74
2022/02/28 00:36:50;;;;;;;4.00;1.95;;;3.90;69.30;;;;;;5030447;28;20056;-73
2022/02/28 00:39:16;;;;;;;3.72;1.85;;;3.90;69.30;;;;;;5023531;28;20021;-73
2022/02/28 00:41:42;;;;;;;3.47;1.65;;;3.90;69.40;;;;;;5030049;28;20030;-72
2022/02/28 00:44:07;;;;;;;4.97;2.97;;;3.90;69.40;;;;;;5030203;28;20080;-73
2022/02/28 00:46:33;;;;;;;3.50;1.80;;;3.80;69.90;;;;;;5030129;28;20446;-72
2022/02/28 00:48:58;;;;;;;5.95;2.97;;;3.80;69.80;;;;;;5030141;28;20035;-73
2022/02/28 00:51:24;;;;;;;5.90;3.53;;;3.80;70.50;;;;;;5027562;28;20444;-72
2022/02/28 00:53:49;;;;;;;6.03;2.90;;;3.70;71.10;;;;;;5030068;28;20547;-73
2022/02/28 00:56:15;;;;;;;6.32;3.47;;;3.70;71.80;;;;;;5028501;28;20029;-72
2022/02/28 00:58:40;;;;;;;5.13;2.53;;;3.60;72.10;;;;;;5029777;28;20022;-73
2022/02/28 01:01:06;;;;;;;5.15;3.17;;;3.60;72.10;;;;;;5029792;28;20507;-72
2022/02/28 01:03:31;;;;;;;5.90;2.97;;;3.50;72.40;;;;;;5029881;28;20105;-73
2022/02/28 01:05:57;;;;;;;6.25;3.30;;;3.50;72.50;;;;;;5029834;28;20148;-72
2022/02/28 01:08:23;;;;;;;5.65;2.78;;;3.50;72.60;;;;;;5029612;28;20033;-73
2022/02/28 01:10:50;;;;;;;5.15;2.55;;;3.50;72.50;;;;;;5029752;28;20493;-72
2022/02/28 01:13:16;;;;;;;7.97;3.22;;;3.50;72.50;;;;;;5028084;28;20045;-72
2022/02/28 01:15:42;;;;;;;6.05;3.00;;;3.50;72.80;;;;;;5029341;28;20079;-72
2022/02/28 01:18:10;;;;;;;5.78;2.97;;;3.50;73.10;;;;;;5028105;28;20052;-72
2022/02/28 01:20:36;;;;;;;8.02;3.50;;;3.40;73.20;;;;;;5029626;28;20521;-73
2022/02/28 01:23:03;;;;;;;8.85;3.25;;;3.40;73.40;;;;;;5027934;28;20108;-73
2022/02/28 01:25:28;;;;;;;5.75;3.10;;;3.40;73.50;;;;;;5029446;28;20044;-72
2022/02/28 01:27:54;;;;;;;5.40;2.78;;;3.40;73.50;;;;;;5029405;28;20025;-72
2022/02/28 01:30:20;;;;;;;6.15;3.20;;;3.40;73.60;;;;;;5029251;28;20112;-72
2022/02/28 01:32:46;;;;;;;6.93;3.63;;;3.40;73.80;;;;;;5029228;28;20025;-73
2022/02/28 01:35:12;;;;;;;8.23;3.90;;;3.30;73.90;;;;;;5029225;28;20029;-73
2022/02/28 01:37:39;;;;;;;5.95;3.00;;;3.30;74.30;;;;;;5029456;28;20033;-73
2022/02/28 01:40:06;;;;;;;8.00;3.92;;;3.30;74.50;;;;;;5029212;28;20098;-72
2022/02/28 01:42:32;;;;;;;7.13;3.55;;;3.30;74.90;;;;;;5029352;28;20079;-73
2022/02/28 01:44:58;;;;;;;9.93;3.58;;;3.20;75.10;;;;;;5029129;28;20021;-73
2022/02/28 01:47:23;;;;;;;7.78;3.50;;;3.20;75.30;;;;;;5028969;28;20450;-72
2022/02/28 01:49:49;;;;;;;6.38;3.15;;;3.10;75.50;;;;;;5027654;28;20026;-73
2022/02/28 01:52:14;;;;;;;10.60;4.32;;;3.10;75.80;;;;;;5024815;28;20638;-72
2022/02/28 01:54:41;;;;;;;6.90;3.60;;;3.10;76.10;;;;;;5028669;28;20040;-72
2022/02/28 01:57:07;;;;;;;6.82;3.40;;;3.10;76.30;;;;;;5027439;28;20068;-72
2022/02/28 01:59:32;;;;;;;6.72;3.70;;;3.00;76.30;;;;;;5029021;28;20053;-72
2022/02/28 02:01:58;;;;;;;7.30;3.83;;;3.00;77.00;;;;;;5027361;28;20505;-72
2022/02/28 02:04:23;;;;;;;10.35;3.72;;;3.00;76.40;;;;;;5028807;28;20075;-73
2022/02/28 02:06:49;;;;;;;8.68;4.07;;;3.00;76.50;;;;;;5036932;28;20138;-72
2022/02/28 02:09:16;;;;;;;6.75;3.35;;;3.00;76.70;;;;;;5029640;28;20053;-72
2022/02/28 02:11:42;;;;;;;8.18;4.03;;;3.00;76.80;;;;;;5028660;28;20022;-72
2022/02/28 02:14:07;;;;;;;8.00;4.10;;;2.90;77.00;;;;;;5027035;28;20140;-72
2022/02/28 02:16:34;;;;;;;10.27;3.35;;;2.90;77.00;;;;;;5028864;28;20034;-73
2022/02/28 02:18:59;;;;;;;11.70;3.20;;;2.90;77.10;;;;;;5028993;28;20033;-72
2022/02/28 02:21:25;;;;;;;8.32;3.50;;;2.90;77.10;;;;;;5025629;28;20032;-72
2022/02/28 02:23:51;;;;;;;6.45;3.33;;;2.90;77.00;;;;;;5027053;28;20056;-72
2022/02/28 02:26:16;;;;;;;5.30;3.00;;;2.90;76.90;;;;;;5028752;28;20026;-72
2022/02/28 02:28:43;;;;;;;6.68;3.17;;;2.90;76.90;;;;;;5028335;28;20025;-72
2022/02/28 02:31:09;;;;;;;5.95;3.30;;;2.90;77.00;;;;;;5028464;28;20029;-72
2022/02/28 02:33:35;;;;;;;7.50;3.80;;;2.90;77.00;;;;;;5027026;28;20033;-73
2022/02/28 02:36:04;;;;;;;9.52;3.75;;;2.90;77.10;;;;;;5026847;28;20120;-72
2022/02/28 02:38:34;;;;;;;7.43;3.42;;;2.90;77.10;;;;;;5028468;28;20512;-72
2022/02/28 02:41:00;;;;;;;7.85;3.85;;;2.80;77.10;;;;;;5028268;28;20037;-72
2022/02/28 02:43:26;;;;;;;5.93;3.47;;;2.80;77.50;;;;;;5024469;28;20025;-72
2022/02/28 02:45:52;;;;;;;7.43;3.45;;;2.80;77.60;;;;;;5028363;28;20742;-72
2022/02/28 02:48:23;;;;;;;7.95;3.95;;;2.80;77.70;;;;;;5026978;28;20090;-72
2022/02/28 02:50:49;;;;;;;5.85;3.25;;;2.80;77.90;;;;;;5028878;28;20045;-72
2022/02/28 02:53:14;;;;;;;8.30;3.92;;;2.70;77.90;;;;;;5028273;28;20053;-72
2022/02/28 02:55:40;;;;;;;5.45;2.90;;;2.70;78.00;;;;;;5027937;28;20075;-72
2022/02/28 02:58:06;;;;;;;6.60;3.80;;;2.70;77.90;;;;;;5024122;28;20033;-72
2022/02/28 03:00:34;;;;;;;6.85;3.10;;;2.70;77.70;;;;;;5028283;28;20053;-72
2022/02/28 03:03:00;;;;;;;7.82;4.28;;;2.70;77.80;;;;;;5028128;28;20017;-72
2022/02/28 03:05:25;;;;;;;6.88;4.05;;;2.70;77.90;;;;;;5040745;28;20032;-72
2022/02/28 03:07:51;;;;;;;10.35;5.18;;;2.70;77.90;;;;;;5028175;28;20469;-72
2022/02/28 03:10:17;;;;;;;8.68;3.97;;;2.70;78.00;;;;;;5028238;28;20485;-72
2022/02/28 03:12:43;;;;;;;7.22;3.42;;;2.70;78.00;;;;;;5028094;28;20045;-72
2022/02/28 03:15:09;;;;;;;6.30;3.40;;;2.70;78.10;;;;;;5027812;28;20049;-72
2022/02/28 03:17:35;;;;;;;7.45;3.85;;;2.70;78.30;;;;;;5028148;28;20026;-72
2022/02/28 03:20:00;;;;;;;6.90;3.40;;;2.60;78.40;;;;;;5027851;28;20485;-72
2022/02/28 03:22:26;;;;;;;11.00;4.07;;;2.60;78.40;;;;;;5026582;28;20112;-72
2022/02/28 03:24:52;;;;;;;10.95;4.63;;;2.60;78.50;;;;;;5028671;28;20199;-71
2022/02/28 03:27:18;;;;;;;6.63;3.67;;;2.50;78.60;;;;;;5028833;28;20041;-72
2022/02/28 03:29:43;;;;;;;9.30;4.15;;;2.50;78.80;;;;;;5026414;28;20068;-72
2022/02/28 03:32:09;;;;;;;9.90;4.32;;;2.50;78.80;;;;;;5027811;28;20034;-72
2022/02/28 03:34:35;;;;;;;7.80;3.85;;;2.50;78.90;;;;;;5028982;28;20026;-72
2022/02/28 03:37:00;;;;;;;6.95;4.32;;;2.50;79.10;;;;;;5031465;28;20029;-72
2022/02/28 03:39:26;;;;;;;7.38;4.40;;;2.50;79.20;;;;;;5028940;28;20500;-72
2022/02/28 03:41:55;;;;;;;6.72;4.03;;;2.40;79.30;;;;;;5031390;28;20371;-72
2022/02/28 03:44:24;;;;;;;6.63;4.13;;;2.40;79.50;;;;;;5029925;28;20829;-72
2022/02/28 03:46:50;;;;;;;5.28;3.78;;;2.40;79.60;;;;;;5031349;28;20547;-72
2022/02/28 03:49:18;;;;;;;6.80;3.90;;;2.40;79.50;;;;;;5031415;28;20497;-72
2022/02/28 03:51:43;;;;;;;8.45;3.75;;;2.40;79.60;;;;;;5031054;28;20036;-72
2022/02/28 03:54:11;;;;;;;5.57;3.10;;;2.40;79.60;;;;;;5031137;28;20021;-72
2022/02/28 03:56:38;;;;;;;6.82;3.15;;;2.30;79.50;;;;;;5031337;28;20017;-72
2022/02/28 03:59:05;;;;;;;5.90;3.22;;;2.30;79.40;;;;;;5031111;28;20426;-72
2022/02/28 04:01:30;;;;;;;5.07;2.58;;;2.30;79.40;;;;;;5029705;28;20393;-72
2022/02/28 04:03:56;;;;;;;4.75;2.60;;;2.30;79.20;;;;;;5030890;28;20010;-72
2022/02/28 04:06:21;;;;;;;3.95;2.80;;;2.30;79.10;;;;;;5030817;28;20036;-72
2022/02/28 04:08:47;;;;;;;3.75;2.38;;;2.40;79.00;;;;;;5029628;28;20026;-72
2022/02/28 04:11:13;;;;;;;3.67;2.10;;;2.40;78.90;;;;;;5030907;28;20193;-72
2022/02/28 04:13:39;;;;;;;3.33;1.83;;;2.40;78.90;;;;;;5030755;28;20049;-72
2022/02/28 04:16:04;;;;;;;4.20;2.22;;;2.30;78.70;;;;;;5039691;28;20139;-72
2022/02/28 04:18:30;;;;;;;3.67;2.28;;;2.30;78.70;;;;;;5030850;28;20036;-72
2022/02/28 04:20:56;;;;;;;4.53;2.55;;;2.30;78.60;;;;;;5030873;28;20036;-72
2022/02/28 04:23:22;;;;;;;5.88;2.15;;;2.30;78.70;;;;;;5030479;28;20042;-72
2022/02/28 04:25:47;;;;;;;4.45;2.25;;;2.30;78.70;;;;;;5030700;28;20037;-72
2022/02/28 04:28:13;;;;;;;6.88;3.30;;;2.30;78.60;;;;;;5030523;28;20021;-72
2022/02/28 04:30:39;;;;;;;5.65;2.80;;;2.20;78.60;;;;;;5030804;28;20033;-72
2022/02/28 04:33:04;;;;;;;3.60;2.42;;;2.20;78.60;;;;;;5034549;28;20028;-73
2022/02/28 04:35:30;;;;;;;4.15;2.33;;;2.20;78.60;;;;;;5030358;28;20029;-72
2022/02/28 04:37:55;;;;;;;3.03;1.92;;;2.20;78.50;;;;;;5028888;28;20500;-72
2022/02/28 04:40:21;;;;;;;4.68;2.28;;;2.20;78.50;;;;;;5030485;28;20029;-72
2022/02/28 04:42:46;;;;;;;4.78;2.78;;;2.20;78.40;;;;;;5027652;28;20032;-73
2022/02/28 04:45:12;;;;;;;4.38;2.90;;;2.20;78.40;;;;;;5029895;28;20029;-72
2022/02/28 04:47:37;;;;;;;8.88;4.30;;;2.20;78.40;;;;;;5030316;28;20041;-72
2022/02/28 04:50:04;;;;;;;6.10;3.47;;;2.10;78.80;;;;;;5029814;28;20022;-73
2022/02/28 04:52:29;;;;;;;7.25;4.35;;;2.10;79.00;;;;;;5026003;28;20029;-72
2022/02/28 04:54:55;;;;;;;7.82;4.68;;;2.00;79.20;;;;;;5028459;28;20029;-73
2022/02/28 04:57:20;;;;;;;8.25;4.35;;;1.90;79.50;;;;;;5029035;28;20409;-72
2022/02/28 04:59:49;;;;;;;6.95;4.30;;;1.90;79.60;;;;;;5029808;28;20196;-72
2022/02/28 05:02:14;;;;;;;4.90;3.20;;;1.90;79.90;;;;;;5030003;28;20025;-73
2022/02/28 05:04:40;;;;;;;7.93;4.40;;;1.80;80.00;;;;;;5028338;28;20037;-72
2022/02/28 05:07:05;;;;;;;8.02;4.78;;;1.80;80.40;;;;;;5029462;28;20060;-73
2022/02/28 05:09:31;;;;;;;6.28;4.35;;;1.70;80.70;;;;;;5029967;28;20127;-72
2022/02/28 05:11:56;;;;;;;8.85;5.22;;;1.70;81.00;;;;;;5029690;28;20108;-72
2022/02/28 05:14:22;;;;;;;12.43;5.70;;;1.60;81.50;;;;;;5026545;28;20536;-73
2022/02/28 05:16:47;;;;;;;9.05;5.05;;;1.60;82.20;;;;;;5029662;28;20091;-73
2022/02/28 05:19:13;;;;;;;8.80;5.22;;;1.50;82.60;;;;;;5029417;28;20029;-72
2022/02/28 05:21:38;;;;;;;8.57;5.80;;;1.50;83.00;;;;;;5029828;28;20029;-73
2022/02/28 05:24:04;;;;;;;13.32;5.75;;;1.40;83.30;;;;;;5029324;28;20040;-73
2022/02/28 05:26:30;;;;;;;9.30;5.38;;;1.40;83.70;;;;;;5029407;28;20108;-72
2022/02/28 05:28:55;;;;;;;8.40;5.43;;;1.40;84.10;;;;;;5029278;28;20021;-73
2022/02/28 05:31:21;;;;;;;11.90;5.70;;;1.30;84.40;;;;;;5029411;28;20032;-73
2022/02/28 05:33:46;;;;;;;8.00;5.18;;;1.30;84.70;;;;;;5044389;28;20053;-73
2022/02/28 05:36:12;;;;;;;8.75;5.85;;;1.30;84.80;;;;;;5029061;28;20152;-73
2022/02/28 05:38:38;;;;;;;9.13;4.72;;;1.30;84.90;;;;;;5029542;28;20041;-72
2022/02/28 05:41:03;;;;;;;9.90;5.82;;;1.30;84.90;;;;;;5028865;28;20021;-73
2022/02/28 05:43:29;;;;;;;11.70;5.47;;;1.30;85.20;;;;;;5029127;28;20470;-73
2022/02/28 05:45:55;;;;;;;9.93;6.05;;;1.30;85.40;;;;;;5024871;28;20063;-72
2022/02/28 05:48:20;;;;;;;11.68;5.80;;;1.30;85.50;;;;;;5027952;28;20025;-73
2022/02/28 05:50:46;;;;;;;10.55;6.30;;;1.20;86.10;;;;;;5028885;28;20029;-73
2022/02/28 05:53:11;;;;;;;10.07;5.53;;;1.20;85.60;;;;;;5029021;28;20040;-73
2022/02/28 05:55:38;;;;;;;11.68;5.75;;;1.20;85.70;;;;;;5028551;28;20064;-73
2022/02/28 05:58:03;;;;;;;11.63;5.75;;;1.20;85.90;;;;;;5028487;28;20069;-73
2022/02/28 06:00:29;;;;;;;12.43;5.95;;;1.20;86.00;;;;;;5029022;28;20056;-73
2022/02/28 06:02:55;;;;;;;9.88;5.60;;;1.20;86.20;;;;;;5028829;28;20389;-72
2022/02/28 06:05:21;;;;;;;8.13;5.45;;;1.20;86.40;;;;;;5028768;28;20590;-73
2022/02/28 06:07:47;;;;;;;10.68;6.05;;;1.10;86.60;;;;;;5028651;28;20500;-73
2022/02/28 06:10:13;;;;;;;10.30;5.82;;;1.10;86.90;;;;;;5027275;28;20409;-73
2022/02/28 06:12:38;;;;;;;15.02;7.13;;;1.10;87.20;;;;;;5028723;28;20033;-73
2022/02/28 06:15:05;;;;;;;10.85;6.55;;;1.10;87.50;;;;;;5026768;28;20045;-73
2022/02/28 06:17:32;;;;;;;10.60;6.18;;;1.00;87.60;;;;;;5031579;28;20046;-73
2022/02/28 06:19:58;;;;;;;9.50;5.78;;;1.00;87.70;;;;;;5032497;28;20024;-73
2022/02/28 06:22:24;;;;;;;10.30;5.78;;;1.00;87.80;;;;;;5029339;28;20026;-73
2022/02/28 06:24:49;;;;;;;7.78;5.20;;;1.00;87.80;;;;;;5029811;28;20444;-73
2022/02/28 06:27:15;;;;;;;10.45;5.53;;;1.00;87.80;;;;;;5032597;28;20029;-73
2022/02/28 06:29:40;;;;;;;8.90;5.60;;;1.00;87.80;;;;;;5030918;28;20065;-73
2022/02/28 06:32:07;;;;;;;9.38;5.38;;;1.00;87.80;;;;;;5032474;28;20488;-73
2022/02/28 06:34:32;;;;;;;10.35;5.47;;;1.00;87.80;;;;;;5032446;28;20049;-73
2022/02/28 06:36:59;;;;;;;12.35;7.25;;;1.00;88.00;;;;;;5032508;28;20473;-73
2022/02/28 06:39:26;;;;;;;11.82;6.22;;;1.00;88.30;;;;;;5031631;28;20061;-73
2022/02/28 06:41:52;;;;;;;12.65;6.68;;;1.00;88.60;;;;;;5030867;28;20076;-73
2022/02/28 06:44:17;;;;;;;9.73;6.22;;;0.90;88.80;;;;;;5031120;28;20025;-73
2022/02/28 06:46:43;;;;;;;11.32;6.38;;;0.90;89.00;;;;;;5014979;28;20022;-73
2022/02/28 06:49:08;;;;;;;13.45;7.00;;;0.90;89.30;;;;;;5012378;28;20033;-73
2022/02/28 06:51:34;;;;;;;9.52;6.15;;;0.90;89.60;;;;;;5027764;28;20026;-73
2022/02/28 06:53:59;;;;;;;12.02;5.85;;;0.80;89.70;;;;;;5034973;28;20462;-73
2022/02/28 06:56:25;;;;;;;10.45;6.30;;;0.80;89.90;;;;;;5032179;28;20511;-73
2022/02/28 06:58:51;;;;;;;9.35;5.82;;;0.90;90.00;;;;;;5047726;28;20474;-73
2022/02/28 07:01:16;;;;;;;11.77;6.68;;;0.90;90.00;;;;;;5032229;28;20022;-72
2022/02/28 07:03:43;;;;;;;13.93;6.63;;;0.90;90.00;;;;;;5020865;28;20037;-73
2022/02/28 07:06:11;;;;;;;11.40;6.50;;;0.90;90.00;;;;;;5012376;28;20030;-73
2022/02/28 07:08:38;;;;;;;10.80;6.47;;;0.90;90.10;;;;;;5013826;28;20030;-73
2022/02/28 07:11:03;;;;;;;10.18;6.85;;;0.90;90.10;;;;;;5016308;28;20054;-72
2022/02/28 07:13:31;;;;;;;11.63;7.45;;;0.90;90.30;;;;;;5016231;28;20508;-73
2022/02/28 07:15:57;;;;;;;12.75;7.47;;;0.90;90.40;;;;;;5023909;28;20112;-73
2022/02/28 07:18:22;;;;;;;12.13;7.07;;;0.90;90.50;;;;;;5031825;28;20025;-72
2022/02/28 07:20:48;;;;;;;11.60;7.38;;;0.90;90.70;;;;;;5034943;28;20025;-72
2022/02/28 07:23:14;;;;;;;10.98;7.00;;;0.90;90.80;;;;;;5035808;28;20394;-73
2022/02/28 07:25:40;;;;;;;12.25;6.82;;;0.90;90.90;;;;;;5035837;28;20432;-73
2022/02/28 07:28:05;;;;;;;13.38;7.13;;;0.90;91.00;;;;;;5035663;28;20032;-72
2022/02/28 07:30:31;;;;;;;12.82;7.97;;;1.00;91.00;;;;;;5035702;28;20108;-72
2022/02/28 07:32:56;;;;;;;16.17;7.72;;;1.00;91.10;;;;;;5035718;28;20025;-72
2022/02/28 07:35:22;;;;;;;10.63;6.55;;;1.10;91.20;;;;;;5035747;28;20030;-72
2022/02/28 07:37:48;;;;;;;12.57;7.10;;;1.10;91.50;;;;;;5035689;28;20026;-72
2022/02/28 07:40:14;;;;;;;13.95;8.25;;;1.20;91.30;;;;;;5033990;28;20032;-72
2022/02/28 07:42:40;;;;;;;13.80;7.28;;;1.20;91.30;;;;;;5035601;28;20026;-72
2022/02/28 07:45:08;;;;;;;12.70;7.82;;;1.20;91.30;;;;;;5033925;28;20350;-72
2022/02/28 07:47:34;;;;;;;13.52;7.72;;;1.30;91.20;;;;;;5033272;28;20018;-72
2022/02/28 07:50:00;;;;;;;12.48;8.18;;;1.40;91.20;;;;;;5033566;28;20029;-72
2022/02/28 07:52:25;;;;;;;13.18;7.85;;;1.40;91.20;;;;;;5033175;28;20021;-72
2022/02/28 07:54:51;;;;;;;12.13;8.20;;;1.40;91.00;;;;;;5033895;28;20038;-72
2022/02/28 07:57:19;;;;;;;14.48;7.78;;;1.50;91.20;;;;;;5035140;28;20057;-72
2022/02/28 07:59:44;;;;;;;13.95;8.00;;;1.60;90.90;;;;;;5035125;28;20394;-72
2022/02/28 08:02:10;;;;;;;11.77;7.00;;;1.60;90.80;;;;;;5034329;28;20022;-72
2022/02/28 08:04:36;;;;;;;12.00;7.60;;;1.70;90.70;;;;;;5030788;28;20508;-72
2022/02/28 08:07:02;;;;;;;14.98;8.02;;;1.80;90.60;;;;;;5033384;28;20028;-72
2022/02/28 08:09:28;;;;;;;12.68;8.25;;;1.80;90.40;;;;;;5033446;28;20025;-71
2022/02/28 08:11:54;;;;;;;13.52;8.43;;;1.90;90.30;;;;;;5035014;28;20497;-71
2022/02/28 08:14:20;;;;;;;12.27;7.97;;;2.00;90.10;;;;;;5031585;28;20053;-72
2022/02/28 08:16:46;;;;;;;13.82;8.13;;;2.10;90.20;;;;;;5034449;28;20021;-72
2022/02/28 08:19:12;;;;;;;13.18;7.85;;;2.10;90.00;;;;;;5032365;28;20064;-72
2022/02/28 08:21:37;;;;;;;15.27;8.43;;;2.20;90.00;;;;;;5034499;28;20018;-72
2022/02/28 08:24:03;;;;;;;12.35;8.15;;;2.30;89.60;;;;;;5034626;28;20061;-72
2022/02/28 08:26:28;;;;;;;14.23;8.10;;;2.30;89.20;;;;;;5033331;28;20050;-72
2022/02/28 08:28:54;;;;;;;13.98;8.05;;;2.40;89.30;;;;;;5033176;28;20025;-72
2022/02/28 08:31:20;;;;;;;11.77;7.95;;;2.50;89.30;;;;;;5034427;28;20504;-72
2022/02/28 08:33:45;;;;;;;14.10;8.90;;;2.50;88.40;;;;;;5034751;28;20493;-72
2022/02/28 08:36:11;;;;;;;13.23;7.97;;;2.60;87.70;;;;;;5037108;28;20530;-72
2022/02/28 08:38:36;;;;;;;13.02;7.93;;;2.60;87.20;;;;;;5054349;28;20029;-72
2022/02/28 08:41:02;;;;;;;13.45;7.72;;;2.70;87.40;;;;;;5053003;28;20473;-72
2022/02/28 08:43:28;;;;;;;11.73;7.80;;;2.80;87.60;;;;;;5054110;28;20056;-71
2022/02/28 08:45:54;;;;;;;14.25;7.80;;;2.90;87.40;;;;;;5054020;28;20044;-71
2022/02/28 08:48:19;;;;;;;14.98;9.05;;;2.90;87.20;;;;;;5052893;28;20029;-71
2022/02/28 08:50:45;;;;;;;11.63;7.72;;;3.00;86.90;;;;;;5054131;28;20095;-71
2022/02/28 08:53:11;;;;;;;16.90;7.78;;;3.10;86.40;;;;;;5045538;28;20548;-71
2022/02/28 08:55:36;;;;;;;12.30;8.13;;;3.20;86.00;;;;;;5033559;28;20065;-71
2022/02/28 08:58:02;;;;;;;14.02;8.23;;;3.20;85.80;;;;;;5032421;28;20083;-71
2022/02/28 09:00:28;;;;;;;11.35;7.47;;;3.30;85.40;;;;;;5034079;28;20052;-71
2022/02/28 09:02:55;;;;;;;12.90;8.10;;;3.40;85.70;;;;;;5033874;28;20071;-71
2022/02/28 09:05:21;;;;;;;13.57;7.75;;;3.50;84.50;;;;;;5033898;28;20084;-71
2022/02/28 09:07:46;;;;;;;13.85;8.73;;;3.60;83.80;;;;;;5033804;28;20061;-71
2022/02/28 09:10:12;;;;;;;13.80;7.63;;;3.60;83.70;;;;;;5033847;28;20071;-71
2022/02/28 09:12:38;;;;;;;14.32;7.90;;;3.70;83.20;;;;;;5033720;28;20055;-71
2022/02/28 09:15:05;;;;;;;14.60;8.30;;;3.80;83.50;;;;;;5033441;28;20054;-71
2022/02/28 09:17:32;;;;;;;12.55;7.20;;;3.80;82.70;;;;;;5033676;28;20029;-71
2022/02/28 09:19:58;;;;;;;17.20;8.00;;;3.90;81.00;;;;;;5032308;28;20033;-71
2022/02/28 09:22:23;;;;;;;12.45;7.95;;;4.00;81.30;;;;;;5033636;28;20018;-71
2022/02/28 09:24:49;;;;;;;12.90;8.23;;;4.10;82.40;;;;;;5033666;28;20025;-71
2022/02/28 09:27:14;;;;;;;13.13;8.13;;;4.20;81.50;;;;;;5033233;28;20036;-70
2022/02/28 09:29:40;;;;;;;14.75;7.38;;;4.20;80.70;;;;;;5032180;28;20426;-71
2022/02/28 09:32:06;;;;;;;15.60;8.40;;;4.30;80.10;;;;;;5032348;28;20060;-71
2022/02/28 09:34:32;;;;;;;15.85;8.80;;;4.30;78.60;;;;;;5033282;28;20057;-71
2022/02/28 09:36:59;;;;;;;15.45;8.77;;;4.40;79.30;;;;;;5032699;28;20057;-70
2022/02/28 09:39:25;;;;;;;13.70;7.72;;;4.50;80.20;;;;;;5032983;28;20018;-70
2022/02/28 09:41:52;;;;;;;13.90;7.97;;;4.60;79.60;;;;;;5033176;28;20103;-70
2022/02/28 09:44:20;;;;;;;9.68;7.30;;;4.70;78.70;;;;;;5031888;28;20017;-71
2022/02/28 09:46:46;;;;;;;13.68;7.35;;;4.80;77.70;;;;;;5031879;28;20017;-71
2022/02/28 09:49:12;;;;;;;11.18;7.63;;;5.00;76.80;;;;;;5032937;28;20112;-71
2022/02/28 09:51:38;;;;;;;14.18;7.72;;;5.10;76.50;;;;;;5031872;28;20363;-71
2022/02/28 09:54:05;;;;;;;11.32;7.47;;;5.20;76.10;;;;;;5032938;28;20025;-71
2022/02/28 09:56:31;;;;;;;13.98;7.57;;;5.30;76.80;;;;;;5031560;28;20029;-71
2022/02/28 09:58:57;;;;;;;10.63;6.65;;;5.50;76.20;;;;;;5032862;28;20078;-71
2022/02/28 10:01:22;;;;;;;10.45;6.75;;;5.60;74.40;;;;;;5032692;28;20038;-71
2022/02/28 10:03:48;;;;;;;12.15;7.07;;;5.80;74.00;;;;;;5032918;28;20034;-71
2022/02/28 10:06:14;;;;;;;12.27;7.10;;;5.90;73.20;;;;;;5032817;28;20040;-71
2022/02/28 10:08:43;;;;;;;13.13;7.47;;;6.10;72.70;;;;;;5031537;28;20034;-71
2022/02/28 10:11:33;;;;;;;10.13;7.38;;;6.20;71.40;;;;;;5031231;28;20030;-71
2022/02/28 10:14:04;;;;;;;11.30;7.07;;;6.30;69.50;;;;;;5032651;28;20075;-71
2022/02/28 10:16:38;;;;;;;13.43;7.32;;;6.40;69.30;;;;;;5031327;28;20485;-70
2022/02/28 10:19:09;;;;;;;9.32;6.65;;;6.60;69.90;;;;;;5032457;28;20034;-70
2022/02/28 10:21:40;;;;;;;12.65;7.00;;;6.80;69.80;;;;;;5031417;28;20025;-70
2022/02/28 10:24:07;;;;;;;13.90;8.25;;;7.00;69.20;;;;;;5030948;28;20014;-70
2022/02/28 10:26:44;;;;;;;11.70;7.20;;;7.30;68.10;;;;;;5031195;28;20030;-70
2022/02/28 10:29:13;;;;;;;10.13;6.60;;;7.60;66.90;;;;;;5030821;28;20041;-70
2022/02/28 10:31:47;;;;;;;12.60;6.28;;;7.80;64.80;;;;;;5040489;28;20021;-70
2022/02/28 10:34:17;;;;;;;9.85;6.68;;;8.10;64.60;;;;;;5028366;28;20037;-70
2022/02/28 10:36:57;;;;;;;;;;;8.50;62.60;;;;;;5031652;28;20060;-71
2022/02/28 10:39:42;;;;;;;9.65;5.72;;;9.50;62.10;;;;;;5030778;28;19962;-71
2022/02/28 10:42:14;;;;;;;8.52;6.32;;;12.20;55.10;;;;;;5030379;28;20032;-70
2022/02/28 10:44:43;;;;;;;11.70;6.55;;;13.80;50.50;;;;;;5035084;28;20085;-70
2022/02/28 10:47:11;;;;;;;8.55;5.70;;;15.10;47.50;;;;;;5034552;28;20376;-71
2022/02/28 10:49:38;;;;;;;7.30;5.07;;;16.90;46.30;;;;;;5039191;28;20032;-71
2022/02/28 10:52:07;;;;;;;8.50;5.07;;;19.20;42.70;;;;;;5034951;28;20026;-71
2022/02/28 10:54:34;;;;;;;7.10;4.63;;;21.20;40.50;;;;;;5032195;28;20017;-71
2022/02/28 10:57:03;;;;;;;6.95;5.10;;;23.00;36.60;;;;;;5041489;28;20489;-71
2022/02/28 10:59:47;;;;;;;6.70;4.70;;;24.30;35.40;;;;;;5034520;28;20052;-71
2022/02/28 11:02:31;;;;;;;7.28;5.40;;;24.20;32.70;;;;;;5045128;28;20041;-71
2022/02/28 11:05:07;;;;;;;7.22;5.28;;;26.20;33.60;;;;;;5019670;28;20026;-71
2022/02/28 11:07:41;;;;;;;6.32;4.85;;;26.50;30.70;;;;;;5016342;28;20037;-72
2022/02/28 11:10:07;;;;;;;6.43;4.95;;;26.30;30.80;;;;;;5016280;28;20036;-73
2022/02/28 11:12:34;;;;;;;6.25;5.38;;;27.00;29.60;;;;;;5016340;28;20092;-72
2022/02/28 11:15:03;;;;;;;5.15;4.10;;;26.50;29.60;;;;;;5015912;28;20103;-73
2022/02/28 11:17:30;;;;;;;5.60;4.30;;;27.10;30.30;;;;;;5035961;28;20017;-72
2022/02/28 11:19:58;;;;;;;6.13;4.50;;;29.70;29.60;;;;;;5035818;28;20465;-72
2022/02/28 11:22:25;;;;;;;6.00;5.25;;;30.00;27.70;;;;;;5051324;28;20021;-72
2022/02/28 11:24:53;;;;;;;6.95;5.13;;;30.50;26.90;;;;;;5035883;28;20116;-73
2022/02/28 11:27:19;;;;;;;6.25;4.90;;;28.90;26.30;;;;;;5034467;28;20555;-73
2022/02/28 11:29:50;;;;;;;5.82;5.32;;;27.50;28.50;;;;;;5035835;28;20029;-73
2022/02/28 11:32:16;;;;;;;5.45;4.63;;;28.10;27.40;;;;;;5035501;28;20036;-73
2022/02/28 11:34:41;;;;;;;5.90;4.25;;;28.80;27.70;;;;;;5035743;28;20033;-74
2022/02/28 11:37:11;;;;;;;5.53;4.05;;;29.90;26.90;;;;;;5035423;28;20470;-73
2022/02/28 11:39:41;;;;;;;4.85;4.20;;;30.60;27.20;;;;;;5035663;28;20018;-73
2022/02/28 11:42:08;;;;;;;5.53;5.03;;;32.10;27.00;;;;;;5035407;28;20029;-73
2022/02/28 11:44:53;;;;;;;6.15;5.55;;;32.60;25.80;;;;;;5035388;28;20505;-73
2022/02/28 11:47:20;;;;;;;6.43;5.72;;;30.70;25.00;;;;;;5035348;28;20039;-73
2022/02/28 11:49:47;;;;;;;6.03;4.72;;;28.40;26.00;;;;;;5034330;28;20474;-73
2022/02/28 11:52:34;;;;;;;7.05;4.20;;;28.00;27.50;;;;;;5035158;28;20121;-72
2022/02/28 11:55:03;;;;;;;8.40;5.78;;;28.60;27.80;;;;;;5033956;28;20017;-72
2022/02/28 11:57:48;;;;;;;6.18;5.10;;;29.10;25.90;;;;;;5035142;28;20075;-72
2022/02/28 12:00:18;;;;;;;7.18;5.90;;;27.80;26.20;;;;;;5035109;28;20025;-72
2022/02/28 12:02:43;;;;;;;5.70;4.85;;;26.90;26.80;;;;;;5035186;28;20083;-71
2022/02/28 12:05:41;;;;;;;6.25;4.85;;;26.30;27.20;;;;;;5034591;28;20037;-72
2022/02/28 12:08:15;;;;;;;6.50;4.97;;;25.80;28.40;;;;;;5034516;28;20033;-72
2022/02/28 12:10:54;;;;;;;6.53;4.80;;;27.50;27.90;;;;;;5033384;28;20381;-72
2022/02/28 12:13:34;;;;;;;6.97;5.75;;;27.60;26.70;;;;;;5033179;28;20037;-72
2022/02/28 12:17:30;;;;;;;6.97;5.80;;;27.00;26.90;;;;;;5030500;28;20028;-72
2022/02/28 12:19:12;;;;;;;6.07;5.50;;;25.60;27.30;;;;;;5033233;28;20025;-72
2022/02/28 12:21:38;;;;;;;7.68;6.35;;;23.90;28.40;;;;;;5030736;28;20432;-72
2022/02/28 12:24:03;;;;;;;6.05;4.63;;;23.40;29.40;;;;;;5033276;28;20010;-72
2022/02/28 12:26:29;;;;;;;7.57;6.00;;;23.90;29.70;;;;;;5030898;28;20389;-72
2022/02/28 12:28:54;;;;;;;6.60;5.57;;;24.60;28.50;;;;;;5033250;28;20449;-72
2022/02/28 12:31:37;;;;;;;6.35;5.15;;;24.90;28.50;;;;;;5032788;28;20034;-72
2022/02/28 12:34:08;;;;;;;6.38;5.38;;;25.50;28.10;;;;;;5030948;28;20028;-72
2022/02/28 12:36:34;;;;;;;6.72;5.75;;;25.40;28.00;;;;;;5032790;28;20057;-72
2022/02/28 12:39:09;;;;;;;7.05;6.28;;;24.90;27.70;;;;;;5036490;28;20044;-72
2022/02/28 12:41:38;;;;;;;6.50;5.35;;;24.30;28.50;;;;;;5032645;28;20013;-72
2022/02/28 12:44:07;;;;;;;;;;;23.30;28.70;;;;;;5033072;28;20025;-72
2022/02/28 12:46:53;;;;;;;6.13;5.53;;;23.00;28.80;;;;;;5032706;28;19919;-72
2022/02/28 12:49:21;;;;;;;6.32;5.25;;;22.80;29.30;;;;;;5032227;28;20037;-72
2022/02/28 12:51:50;;;;;;;6.70;5.43;;;23.10;30.00;;;;;;5032565;28;20064;-73